RYR9ZE LGSA-EPKK
Flight info
| Callsign | RYR9ZE |
|---|---|
| Flight time | 2h 28m |
| Altitude | 36000 |
| Route | SOKRI UY151 VELOP DCT ATV UM749 SKP UL617 BAMOS/N0440F370 DCT PEREN/N0437F360 DCT ATFIR N133 USALI DCT ERDOM DCT NARKA DCT KSC DCT KOJOT DCT RAZEC N133 LENOV |
| Aircraft | B738/M-SDE2E3FGHIRWXY/LB1 |
Departure
| Time | 2026-05-04 18:20 |
|---|---|
| Airport | Chania International Airport (LGSA) |
Arrival
| Time | 2026-05-04 20:49 |
|---|---|
| Airport | Kraków John Paul II International Airport (EPKK) |
| Time | Latitude | Longitude | Altitude | Speed | Heading |
|---|---|---|---|---|---|
| 2026-05-04 17:51 | 35.53920 | 24.13935 | 492 ft | 0 kts | 20° |
| 2026-05-04 18:09 | 35.53910 | 24.13930 | 497 ft | 4 kts | 22° |
| 2026-05-04 18:10 | 35.53886 | 24.13916 | 486 ft | 4 kts | 30° |
| 2026-05-04 18:10 | 35.53863 | 24.13898 | 486 ft | 4 kts | 44° |
| 2026-05-04 18:10 | 35.53849 | 24.13874 | 486 ft | 4 kts | 89° |
| 2026-05-04 18:10 | 35.53850 | 24.13863 | 488 ft | 0 kts | 111° |
| 2026-05-04 18:13 | 35.53827 | 24.13935 | 496 ft | 13 kts | 111° |
| 2026-05-04 18:14 | 35.53794 | 24.14007 | 493 ft | 9 kts | 153° |
| 2026-05-04 18:14 | 35.53737 | 24.13988 | 497 ft | 9 kts | 203° |
| 2026-05-04 18:14 | 35.53680 | 24.13983 | 492 ft | 9 kts | 143° |
| 2026-05-04 18:15 | 35.53616 | 24.14193 | 490 ft | 23 kts | 111° |
| 2026-05-04 18:15 | 35.53492 | 24.14574 | 488 ft | 23 kts | 112° |
| 2026-05-04 18:15 | 35.53434 | 24.14754 | 486 ft | 22 kts | 112° |
| 2026-05-04 18:16 | 35.53377 | 24.14929 | 488 ft | 22 kts | 112° |
| 2026-05-04 18:16 | 35.53321 | 24.15099 | 496 ft | 22 kts | 111° |
| 2026-05-04 18:16 | 35.53259 | 24.15291 | 488 ft | 27 kts | 111° |
| 2026-05-04 18:17 | 35.53115 | 24.15734 | 493 ft | 26 kts | 110° |
| 2026-05-04 18:17 | 35.53050 | 24.15937 | 494 ft | 25 kts | 112° |
| 2026-05-04 18:17 | 35.52930 | 24.16305 | 491 ft | 22 kts | 111° |
| 2026-05-04 18:18 | 35.52873 | 24.16479 | 492 ft | 22 kts | 112° |
| 2026-05-04 18:18 | 35.52818 | 24.16649 | 496 ft | 21 kts | 112° |
| 2026-05-04 18:18 | 35.52767 | 24.16812 | 495 ft | 15 kts | 111° |
| 2026-05-04 18:18 | 35.52735 | 24.16883 | 495 ft | 7 kts | 144° |
| 2026-05-04 18:19 | 35.52624 | 24.16844 | 498 ft | 11 kts | 202° |
| 2026-05-04 18:19 | 35.52588 | 24.16793 | 492 ft | 9 kts | 278° |
| 2026-05-04 18:19 | 35.52609 | 24.16724 | 495 ft | 10 kts | 292° |
| 2026-05-04 18:20 | 35.52670 | 24.16532 | 495 ft | 55 kts | 291° |
| 2026-05-04 18:20 | 35.52906 | 24.15805 | 487 ft | 126 kts | 292° |
| 2026-05-04 18:20 | 35.53288 | 24.14636 | 812 ft | 154 kts | 292° |
| 2026-05-04 18:20 | 35.53690 | 24.13438 | 1779 ft | 148 kts | 291° |
| 2026-05-04 18:21 | 35.54070 | 24.12293 | 2660 ft | 150 kts | 291° |
| 2026-05-04 18:21 | 35.54487 | 24.11001 | 3134 ft | 175 kts | 290° |
| 2026-05-04 18:21 | 35.55238 | 24.09780 | 3685 ft | 192 kts | 328° |
| 2026-05-04 18:21 | 35.56602 | 24.09437 | 3954 ft | 212 kts | 2° |
| 2026-05-04 18:22 | 35.58068 | 24.09667 | 4350 ft | 214 kts | 2° |
| 2026-05-04 18:22 | 35.59534 | 24.09869 | 4719 ft | 213 kts | 359° |
| 2026-05-04 18:22 | 35.60960 | 24.09521 | 5119 ft | 215 kts | 334° |
| 2026-05-04 18:22 | 35.62292 | 24.08529 | 5591 ft | 235 kts | 324° |
| 2026-05-04 18:23 | 35.63630 | 24.07263 | 6025 ft | 246 kts | 323° |
| 2026-05-04 18:23 | 35.64975 | 24.05943 | 6443 ft | 248 kts | 323° |
| 2026-05-04 18:23 | 35.66322 | 24.04619 | 7174 ft | 252 kts | 323° |
| 2026-05-04 18:23 | 35.67710 | 24.03261 | 7975 ft | 257 kts | 323° |
| 2026-05-04 18:24 | 35.69126 | 24.01882 | 8808 ft | 262 kts | 323° |
| 2026-05-04 18:24 | 35.70572 | 24.00480 | 9641 ft | 267 kts | 323° |
| 2026-05-04 18:24 | 35.72048 | 23.99052 | 10368 ft | 276 kts | 323° |
| 2026-05-04 18:24 | 35.73606 | 23.97550 | 10583 ft | 301 kts | 323° |
| 2026-05-04 18:25 | 35.75323 | 23.95898 | 10777 ft | 325 kts | 323° |
| 2026-05-04 18:25 | 35.77144 | 23.94143 | 11277 ft | 336 kts | 323° |
| 2026-05-04 18:25 | 35.78990 | 23.92362 | 12071 ft | 339 kts | 323° |
| 2026-05-04 18:25 | 35.80861 | 23.90558 | 12793 ft | 345 kts | 323° |
| 2026-05-04 18:26 | 35.82761 | 23.88724 | 13587 ft | 349 kts | 323° |
| 2026-05-04 18:26 | 35.84680 | 23.86872 | 14379 ft | 351 kts | 323° |
| 2026-05-04 18:26 | 35.86602 | 23.85017 | 15296 ft | 349 kts | 323° |
| 2026-05-04 18:26 | 35.88504 | 23.83179 | 16273 ft | 347 kts | 323° |
| 2026-05-04 18:27 | 35.90394 | 23.81352 | 17189 ft | 346 kts | 323° |
| 2026-05-04 18:27 | 35.92289 | 23.79519 | 18045 ft | 347 kts | 323° |
| 2026-05-04 18:27 | 35.94191 | 23.77679 | 18810 ft | 348 kts | 323° |
| 2026-05-04 18:27 | 35.96105 | 23.75827 | 19446 ft | 351 kts | 323° |
| 2026-05-04 18:28 | 35.98036 | 23.73957 | 20084 ft | 353 kts | 323° |
| 2026-05-04 18:28 | 35.99971 | 23.72083 | 20753 ft | 355 kts | 323° |
| 2026-05-04 18:28 | 36.01932 | 23.70193 | 21337 ft | 359 kts | 323° |
| 2026-05-04 18:28 | 36.03916 | 23.68288 | 21907 ft | 363 kts | 323° |
| 2026-05-04 18:29 | 36.05915 | 23.66368 | 22484 ft | 366 kts | 322° |
| 2026-05-04 18:29 | 36.07935 | 23.64426 | 23054 ft | 369 kts | 322° |
| 2026-05-04 18:29 | 36.09972 | 23.62466 | 23610 ft | 372 kts | 322° |
| 2026-05-04 18:29 | 36.12023 | 23.60490 | 24085 ft | 375 kts | 322° |
| 2026-05-04 18:30 | 36.16154 | 23.56503 | 25088 ft | 378 kts | 322° |
| 2026-05-04 18:30 | 36.18227 | 23.54501 | 25566 ft | 379 kts | 322° |
| 2026-05-04 18:30 | 36.20313 | 23.52486 | 26027 ft | 381 kts | 322° |
| 2026-05-04 18:31 | 36.22408 | 23.50459 | 26471 ft | 383 kts | 322° |
| 2026-05-04 18:31 | 36.24540 | 23.48471 | 26897 ft | 385 kts | 327° |
| 2026-05-04 18:31 | 36.26962 | 23.47029 | 27318 ft | 389 kts | 339° |
| 2026-05-04 18:31 | 36.29611 | 23.46259 | 27737 ft | 394 kts | 347° |
| 2026-05-04 18:32 | 36.32326 | 23.45705 | 28135 ft | 396 kts | 347° |
| 2026-05-04 18:32 | 36.35060 | 23.45182 | 28513 ft | 399 kts | 347° |
| 2026-05-04 18:32 | 36.37804 | 23.44657 | 28884 ft | 400 kts | 347° |
| 2026-05-04 18:32 | 36.40560 | 23.44119 | 29320 ft | 401 kts | 347° |
| 2026-05-04 18:33 | 36.43304 | 23.43571 | 29920 ft | 397 kts | 347° |
| 2026-05-04 18:33 | 36.46018 | 23.43021 | 30486 ft | 394 kts | 347° |
| 2026-05-04 18:33 | 36.48719 | 23.42467 | 30865 ft | 393 kts | 347° |
| 2026-05-04 18:33 | 36.51420 | 23.41908 | 31223 ft | 394 kts | 347° |
| 2026-05-04 18:34 | 36.54126 | 23.41347 | 31550 ft | 395 kts | 347° |
| 2026-05-04 18:34 | 36.56803 | 23.40791 | 31934 ft | 395 kts | 347° |
| 2026-05-04 18:34 | 36.59508 | 23.40230 | 32372 ft | 393 kts | 347° |
| 2026-05-04 18:34 | 36.62203 | 23.39671 | 32772 ft | 393 kts | 347° |
| 2026-05-04 18:35 | 36.64901 | 23.39111 | 33139 ft | 393 kts | 347° |
| 2026-05-04 18:35 | 36.67591 | 23.38551 | 33529 ft | 392 kts | 347° |
| 2026-05-04 18:35 | 36.70283 | 23.37992 | 33924 ft | 392 kts | 347° |
| 2026-05-04 18:35 | 36.72968 | 23.37433 | 34269 ft | 391 kts | 347° |
| 2026-05-04 18:36 | 36.75659 | 23.36872 | 34536 ft | 393 kts | 347° |
| 2026-05-04 18:36 | 36.78370 | 23.36306 | 34711 ft | 396 kts | 347° |
| 2026-05-04 18:36 | 36.81089 | 23.35739 | 34990 ft | 396 kts | 347° |
| 2026-05-04 18:36 | 36.83806 | 23.35173 | 35314 ft | 396 kts | 347° |
| 2026-05-04 18:37 | 36.86527 | 23.34606 | 35557 ft | 397 kts | 347° |
| 2026-05-04 18:37 | 36.89262 | 23.34035 | 35802 ft | 398 kts | 347° |
| 2026-05-04 18:37 | 36.91992 | 23.33464 | 36080 ft | 399 kts | 347° |
| 2026-05-04 18:38 | 36.97516 | 23.32307 | 36122 ft | 405 kts | 347° |
| 2026-05-04 18:38 | 37.03057 | 23.31148 | 36116 ft | 400 kts | 347° |
| 2026-05-04 18:39 | 37.08521 | 23.30003 | 36124 ft | 398 kts | 347° |
| 2026-05-04 18:39 | 37.13990 | 23.28954 | 36120 ft | 400 kts | 354° |
| 2026-05-04 18:39 | 37.16789 | 23.29200 | 36140 ft | 407 kts | 5° |
| 2026-05-04 18:40 | 37.19558 | 23.30030 | 36125 ft | 413 kts | 12° |
| 2026-05-04 18:40 | 37.22204 | 23.31510 | 36124 ft | 424 kts | 26° |
| 2026-05-04 18:40 | 37.24588 | 23.33708 | 36136 ft | 429 kts | 31° |
| 2026-05-04 18:41 | 37.29365 | 23.38179 | 36128 ft | 427 kts | 27° |
| 2026-05-04 18:41 | 37.34372 | 23.42120 | 36125 ft | 424 kts | 24° |
| 2026-05-04 18:42 | 37.39501 | 23.45765 | 36139 ft | 423 kts | 22° |
| 2026-05-04 18:42 | 37.44654 | 23.49341 | 36135 ft | 424 kts | 22° |
| 2026-05-04 18:43 | 37.49818 | 23.52938 | 36123 ft | 424 kts | 22° |
| 2026-05-04 18:43 | 37.57604 | 23.58393 | 36130 ft | 424 kts | 23° |
| 2026-05-04 18:44 | 37.67858 | 23.65604 | 36131 ft | 425 kts | 23° |
| 2026-05-04 18:44 | 37.78232 | 23.72923 | 36151 ft | 424 kts | 24° |
| 2026-05-04 18:45 | 37.86373 | 23.78510 | 36124 ft | 420 kts | 15° |
| 2026-05-04 18:45 | 37.91999 | 23.79918 | 36129 ft | 410 kts | 358° |
| 2026-05-04 18:46 | 37.99950 | 23.78916 | 36134 ft | 407 kts | 351° |
| 2026-05-04 18:46 | 38.11261 | 23.77219 | 36134 ft | 408 kts | 351° |
| 2026-05-04 18:47 | 38.21019 | 23.75808 | 36145 ft | 409 kts | 351° |
| 2026-05-04 18:47 | 38.32409 | 23.74167 | 36144 ft | 409 kts | 351° |
| 2026-05-04 18:48 | 38.38204 | 23.73323 | 36141 ft | 409 kts | 351° |
| 2026-05-04 18:48 | 38.43819 | 23.72505 | 36147 ft | 409 kts | 351° |
| 2026-05-04 18:49 | 38.49468 | 23.71683 | 36139 ft | 409 kts | 351° |
| 2026-05-04 18:49 | 38.55116 | 23.70860 | 36134 ft | 408 kts | 351° |
| 2026-05-04 18:50 | 38.60764 | 23.70035 | 36130 ft | 408 kts | 351° |
| 2026-05-04 18:50 | 38.66401 | 23.69211 | 36138 ft | 408 kts | 351° |
| 2026-05-04 18:51 | 38.72053 | 23.68383 | 36127 ft | 409 kts | 351° |
| 2026-05-04 18:51 | 38.77724 | 23.67551 | 36124 ft | 411 kts | 351° |
| 2026-05-04 18:52 | 38.83410 | 23.66716 | 36128 ft | 411 kts | 351° |
| 2026-05-04 18:52 | 38.89101 | 23.65878 | 36114 ft | 413 kts | 352° |
| 2026-05-04 18:53 | 38.94819 | 23.65036 | 36127 ft | 414 kts | 352° |
| 2026-05-04 18:53 | 39.00562 | 23.64187 | 36118 ft | 416 kts | 352° |
| 2026-05-04 18:54 | 39.06331 | 23.63333 | 36113 ft | 418 kts | 352° |
| 2026-05-04 18:54 | 39.12121 | 23.62476 | 36110 ft | 420 kts | 352° |
| 2026-05-04 18:55 | 39.17930 | 23.61506 | 36107 ft | 421 kts | 347° |
| 2026-05-04 18:55 | 39.26231 | 23.57753 | 36097 ft | 423 kts | 343° |
| 2026-05-04 18:56 | 39.29122 | 23.57077 | 36104 ft | 425 kts | 354° |
| 2026-05-04 18:56 | 39.32081 | 23.57054 | 36100 ft | 427 kts | 3° |
| 2026-05-04 18:56 | 39.36949 | 23.58248 | 36107 ft | 430 kts | 12° |
| 2026-05-04 18:57 | 39.42761 | 23.60106 | 36102 ft | 431 kts | 12° |
| 2026-05-04 18:57 | 39.49536 | 23.62255 | 36100 ft | 431 kts | 12° |
| 2026-05-04 18:58 | 39.54422 | 23.63776 | 36095 ft | 432 kts | 12° |
| 2026-05-04 18:58 | 39.60265 | 23.65583 | 36097 ft | 432 kts | 12° |
| 2026-05-04 18:59 | 39.65892 | 23.67323 | 36094 ft | 432 kts | 12° |
| 2026-05-04 18:59 | 39.71683 | 23.69117 | 36094 ft | 431 kts | 12° |
| 2026-05-04 19:00 | 39.77519 | 23.70928 | 36085 ft | 431 kts | 12° |
| 2026-05-04 19:00 | 39.83335 | 23.72737 | 36092 ft | 429 kts | 12° |
| 2026-05-04 19:01 | 39.89138 | 23.74545 | 36094 ft | 428 kts | 12° |
| 2026-05-04 19:01 | 39.94931 | 23.76353 | 36094 ft | 428 kts | 12° |
| 2026-05-04 19:02 | 40.00718 | 23.78163 | 36090 ft | 428 kts | 12° |
| 2026-05-04 19:02 | 40.06512 | 23.79977 | 36090 ft | 428 kts | 12° |
| 2026-05-04 19:03 | 40.12299 | 23.81793 | 36084 ft | 428 kts | 12° |
| 2026-05-04 19:03 | 40.18089 | 23.83613 | 36091 ft | 429 kts | 12° |
| 2026-05-04 19:04 | 40.23901 | 23.85443 | 36090 ft | 429 kts | 12° |
| 2026-05-04 19:04 | 40.29708 | 23.87274 | 36087 ft | 430 kts | 12° |
| 2026-05-04 19:05 | 40.35528 | 23.89113 | 36081 ft | 430 kts | 12° |
| 2026-05-04 19:05 | 40.41346 | 23.90955 | 36079 ft | 430 kts | 12° |
| 2026-05-04 19:06 | 40.47172 | 23.92803 | 36524 ft | 431 kts | 13° |
| 2026-05-04 19:06 | 40.50098 | 23.93732 | 36354 ft | 434 kts | 13° |
| 2026-05-04 19:06 | 40.53008 | 23.94657 | 36235 ft | 427 kts | 13° |
| 2026-05-04 19:07 | 40.58771 | 23.96168 | 36080 ft | 422 kts | 4° |
| 2026-05-04 19:07 | 40.64608 | 23.95728 | 36087 ft | 422 kts | 351° |
| 2026-05-04 19:08 | 40.70384 | 23.94314 | 36072 ft | 422 kts | 351° |
| 2026-05-04 19:08 | 40.76159 | 23.92885 | 36079 ft | 422 kts | 351° |
| 2026-05-04 19:09 | 40.81913 | 23.91494 | 36076 ft | 423 kts | 351° |
| 2026-05-04 19:09 | 40.87664 | 23.90118 | 36081 ft | 424 kts | 351° |
| 2026-05-04 19:10 | 40.93481 | 23.88728 | 36084 ft | 425 kts | 351° |
| 2026-05-04 19:10 | 40.99303 | 23.87334 | 36078 ft | 426 kts | 351° |
| 2026-05-04 19:11 | 41.05140 | 23.85933 | 36093 ft | 426 kts | 351° |
| 2026-05-04 19:11 | 41.10975 | 23.84530 | 36083 ft | 426 kts | 351° |
| 2026-05-04 19:12 | 41.19733 | 23.82420 | 36091 ft | 427 kts | 351° |
| 2026-05-04 19:13 | 41.25585 | 23.81006 | 36097 ft | 427 kts | 351° |
| 2026-05-04 19:13 | 41.31436 | 23.79590 | 36112 ft | 427 kts | 351° |
| 2026-05-04 19:14 | 41.37279 | 23.78174 | 36104 ft | 426 kts | 351° |
| 2026-05-04 19:14 | 41.43122 | 23.76934 | 36113 ft | 425 kts | 355° |
| 2026-05-04 19:15 | 41.48954 | 23.76128 | 36124 ft | 423 kts | 356° |
| 2026-05-04 19:15 | 41.54811 | 23.75364 | 36137 ft | 423 kts | 356° |
| 2026-05-04 19:16 | 41.60661 | 23.74552 | 36128 ft | 422 kts | 355° |
| 2026-05-04 19:16 | 41.66450 | 23.73302 | 36134 ft | 422 kts | 349° |
| 2026-05-04 19:17 | 41.72159 | 23.71497 | 36131 ft | 421 kts | 349° |
| 2026-05-04 19:17 | 41.77851 | 23.69664 | 36140 ft | 420 kts | 349° |
| 2026-05-04 19:18 | 41.83532 | 23.67885 | 36138 ft | 419 kts | 349° |
| 2026-05-04 19:18 | 41.89214 | 23.66135 | 36155 ft | 418 kts | 349° |
| 2026-05-04 19:19 | 41.94891 | 23.64394 | 36156 ft | 419 kts | 350° |
| 2026-05-04 19:19 | 42.00573 | 23.62650 | 36157 ft | 418 kts | 350° |
| 2026-05-04 19:20 | 42.06248 | 23.60905 | 36157 ft | 418 kts | 350° |
| 2026-05-04 19:20 | 42.11918 | 23.59157 | 36163 ft | 418 kts | 350° |
| 2026-05-04 19:21 | 42.17582 | 23.57407 | 36152 ft | 417 kts | 350° |
| 2026-05-04 19:21 | 42.23183 | 23.55673 | 36149 ft | 416 kts | 350° |
| 2026-05-04 19:22 | 42.28822 | 23.53925 | 36155 ft | 415 kts | 350° |
| 2026-05-04 19:22 | 42.34452 | 23.52177 | 36160 ft | 415 kts | 350° |
| 2026-05-04 19:23 | 42.40088 | 23.50423 | 36159 ft | 415 kts | 350° |
| 2026-05-04 19:23 | 42.45710 | 23.48671 | 36164 ft | 415 kts | 350° |
| 2026-05-04 19:24 | 42.51342 | 23.46912 | 36165 ft | 416 kts | 350° |
| 2026-05-04 19:24 | 42.56975 | 23.45150 | 36111 ft | 416 kts | 350° |
| 2026-05-04 19:25 | 42.62603 | 23.43385 | 36145 ft | 415 kts | 350° |
| 2026-05-04 19:25 | 42.68214 | 23.41623 | 36150 ft | 413 kts | 350° |
| 2026-05-04 19:26 | 42.73809 | 23.39863 | 36155 ft | 412 kts | 350° |
| 2026-05-04 19:26 | 42.79403 | 23.38100 | 36157 ft | 413 kts | 350° |
| 2026-05-04 19:27 | 42.85008 | 23.36330 | 36154 ft | 414 kts | 350° |
| 2026-05-04 19:27 | 42.90629 | 23.34552 | 36149 ft | 415 kts | 350° |
| 2026-05-04 19:28 | 42.96259 | 23.32767 | 36171 ft | 415 kts | 351° |
| 2026-05-04 19:28 | 43.01879 | 23.30982 | 36151 ft | 414 kts | 351° |
| 2026-05-04 19:29 | 43.07484 | 23.29198 | 36154 ft | 413 kts | 351° |
| 2026-05-04 19:29 | 43.13069 | 23.27417 | 36163 ft | 411 kts | 351° |
| 2026-05-04 19:30 | 43.18597 | 23.25652 | 36162 ft | 410 kts | 351° |
| 2026-05-04 19:30 | 43.24140 | 23.23879 | 36163 ft | 408 kts | 351° |
| 2026-05-04 19:31 | 43.29647 | 23.22113 | 36160 ft | 405 kts | 351° |
| 2026-05-04 19:31 | 43.35119 | 23.20355 | 36163 ft | 403 kts | 351° |
| 2026-05-04 19:32 | 43.40564 | 23.18603 | 36159 ft | 401 kts | 351° |
| 2026-05-04 19:32 | 43.45991 | 23.16854 | 36164 ft | 401 kts | 351° |
| 2026-05-04 19:33 | 43.51427 | 23.15100 | 36160 ft | 402 kts | 351° |
| 2026-05-04 19:33 | 43.56914 | 23.13325 | 36126 ft | 402 kts | 351° |
| 2026-05-04 19:34 | 43.62321 | 23.11573 | 36137 ft | 403 kts | 351° |
| 2026-05-04 19:34 | 43.67781 | 23.09800 | 36150 ft | 404 kts | 351° |
| 2026-05-04 19:35 | 43.73257 | 23.08018 | 36139 ft | 405 kts | 351° |
| 2026-05-04 19:35 | 43.78743 | 23.06230 | 36144 ft | 405 kts | 351° |
| 2026-05-04 19:36 | 43.84232 | 23.04437 | 36139 ft | 406 kts | 351° |
| 2026-05-04 19:36 | 43.89735 | 23.02637 | 36104 ft | 406 kts | 351° |
| 2026-05-04 19:37 | 43.95234 | 23.00834 | 36131 ft | 406 kts | 351° |
| 2026-05-04 19:37 | 44.00729 | 22.99029 | 36141 ft | 406 kts | 351° |
| 2026-05-04 19:38 | 44.06230 | 22.97219 | 36144 ft | 406 kts | 351° |
| 2026-05-04 19:38 | 44.11718 | 22.95410 | 36125 ft | 406 kts | 351° |
| 2026-05-04 19:39 | 44.17215 | 22.93594 | 36134 ft | 406 kts | 351° |
| 2026-05-04 19:39 | 44.22710 | 22.91775 | 36143 ft | 406 kts | 351° |
| 2026-05-04 19:40 | 44.28197 | 22.89955 | 36169 ft | 405 kts | 351° |
| 2026-05-04 19:40 | 44.33690 | 22.88131 | 36175 ft | 406 kts | 351° |
| 2026-05-04 19:41 | 44.39186 | 22.86302 | 36173 ft | 407 kts | 351° |
| 2026-05-04 19:41 | 44.44703 | 22.84462 | 36175 ft | 408 kts | 351° |
| 2026-05-04 19:42 | 44.50229 | 22.82615 | 36175 ft | 409 kts | 351° |
| 2026-05-04 19:42 | 44.55767 | 22.80761 | 36174 ft | 409 kts | 351° |
| 2026-05-04 19:43 | 44.61307 | 22.78902 | 36166 ft | 410 kts | 351° |
| 2026-05-04 19:43 | 44.66851 | 22.77038 | 36176 ft | 409 kts | 351° |
| 2026-05-04 19:44 | 44.72393 | 22.75171 | 36176 ft | 409 kts | 351° |
| 2026-05-04 19:44 | 44.77933 | 22.73302 | 36173 ft | 409 kts | 351° |
| 2026-05-04 19:45 | 44.82529 | 22.71748 | 36173 ft | 409 kts | 351° |
| 2026-05-04 19:45 | 44.88059 | 22.69875 | 36173 ft | 409 kts | 351° |
| 2026-05-04 19:46 | 44.94473 | 22.67698 | 36152 ft | 407 kts | 351° |
| 2026-05-04 19:46 | 44.99968 | 22.65829 | 36172 ft | 406 kts | 351° |
| 2026-05-04 19:47 | 45.04566 | 22.64263 | 36186 ft | 406 kts | 351° |
| 2026-05-04 19:47 | 45.10060 | 22.62389 | 36191 ft | 406 kts | 351° |
| 2026-05-04 19:48 | 45.15564 | 22.60506 | 36194 ft | 408 kts | 351° |
| 2026-05-04 19:48 | 45.21090 | 22.58613 | 36183 ft | 409 kts | 351° |
| 2026-05-04 19:49 | 45.26617 | 22.56713 | 36183 ft | 409 kts | 351° |
| 2026-05-04 19:49 | 45.32159 | 22.54809 | 36176 ft | 410 kts | 350° |
| 2026-05-04 19:50 | 45.37719 | 22.52890 | 36189 ft | 411 kts | 350° |
| 2026-05-04 19:50 | 45.43254 | 22.50977 | 36178 ft | 413 kts | 350° |
| 2026-05-04 19:51 | 45.48874 | 22.49031 | 36183 ft | 413 kts | 350° |
| 2026-05-04 19:51 | 45.54470 | 22.47090 | 36180 ft | 414 kts | 350° |
| 2026-05-04 19:52 | 45.60039 | 22.45154 | 36182 ft | 415 kts | 350° |
| 2026-05-04 19:52 | 45.65638 | 22.43204 | 36163 ft | 415 kts | 349° |
| 2026-05-04 19:53 | 45.71239 | 22.41249 | 36176 ft | 415 kts | 349° |
| 2026-05-04 19:53 | 45.76849 | 22.39286 | 36181 ft | 415 kts | 349° |
| 2026-05-04 19:54 | 45.82467 | 22.37317 | 36171 ft | 416 kts | 350° |
| 2026-05-04 19:54 | 45.88088 | 22.35343 | 36175 ft | 416 kts | 349° |
| 2026-05-04 19:55 | 45.93709 | 22.33364 | 36172 ft | 416 kts | 349° |
| 2026-05-04 19:55 | 45.99332 | 22.31381 | 36166 ft | 416 kts | 349° |
| 2026-05-04 19:56 | 46.04954 | 22.29395 | 36168 ft | 416 kts | 349° |
| 2026-05-04 19:56 | 46.10568 | 22.27406 | 36166 ft | 415 kts | 349° |
| 2026-05-04 19:57 | 46.16181 | 22.25413 | 36163 ft | 416 kts | 349° |
| 2026-05-04 19:57 | 46.21796 | 22.23416 | 36165 ft | 416 kts | 349° |
| 2026-05-04 19:58 | 46.27424 | 22.21410 | 36160 ft | 416 kts | 349° |
| 2026-05-04 19:58 | 46.33016 | 22.19413 | 36157 ft | 417 kts | 349° |
| 2026-05-04 19:59 | 46.38681 | 22.17385 | 36145 ft | 417 kts | 349° |
| 2026-05-04 19:59 | 46.44272 | 22.15379 | 36155 ft | 416 kts | 349° |
| 2026-05-04 20:00 | 46.49892 | 22.13359 | 36156 ft | 416 kts | 349° |
| 2026-05-04 20:00 | 46.55518 | 22.11333 | 36155 ft | 416 kts | 349° |
| 2026-05-04 20:01 | 46.61139 | 22.09304 | 36154 ft | 417 kts | 349° |
| 2026-05-04 20:01 | 46.66765 | 22.07268 | 36155 ft | 417 kts | 349° |
| 2026-05-04 20:02 | 46.72407 | 22.05223 | 36146 ft | 418 kts | 349° |
| 2026-05-04 20:02 | 46.78051 | 22.03172 | 36143 ft | 418 kts | 349° |
| 2026-05-04 20:03 | 46.83691 | 22.01119 | 36141 ft | 418 kts | 349° |
| 2026-05-04 20:03 | 46.89326 | 21.99062 | 36145 ft | 418 kts | 349° |
| 2026-05-04 20:04 | 46.94965 | 21.97000 | 36136 ft | 418 kts | 349° |
| 2026-05-04 20:04 | 47.00605 | 21.94933 | 36142 ft | 418 kts | 349° |
| 2026-05-04 20:05 | 47.06242 | 21.92862 | 36142 ft | 418 kts | 348° |
| 2026-05-04 20:05 | 47.11879 | 21.90788 | 36124 ft | 418 kts | 348° |
| 2026-05-04 20:06 | 47.17514 | 21.88708 | 36137 ft | 418 kts | 348° |
| 2026-05-04 20:06 | 47.23155 | 21.86623 | 36140 ft | 418 kts | 348° |
| 2026-05-04 20:07 | 47.28787 | 21.84437 | 36137 ft | 419 kts | 347° |
| 2026-05-04 20:07 | 47.34396 | 21.82082 | 36137 ft | 419 kts | 346° |
| 2026-05-04 20:08 | 47.40008 | 21.79713 | 36138 ft | 420 kts | 346° |
| 2026-05-04 20:08 | 47.45624 | 21.77356 | 36137 ft | 420 kts | 346° |
| 2026-05-04 20:09 | 47.51235 | 21.75006 | 36130 ft | 420 kts | 346° |
| 2026-05-04 20:09 | 47.56856 | 21.72651 | 36138 ft | 420 kts | 346° |
| 2026-05-04 20:10 | 47.62473 | 21.70291 | 36136 ft | 420 kts | 346° |
| 2026-05-04 20:10 | 47.68093 | 21.67925 | 36134 ft | 420 kts | 346° |
| 2026-05-04 20:11 | 47.73710 | 21.65555 | 36134 ft | 419 kts | 346° |
| 2026-05-04 20:11 | 47.79324 | 21.63181 | 36133 ft | 419 kts | 346° |
| 2026-05-04 20:12 | 47.84898 | 21.60818 | 36135 ft | 419 kts | 346° |
| 2026-05-04 20:12 | 47.90534 | 21.58424 | 36121 ft | 419 kts | 346° |
| 2026-05-04 20:13 | 47.96105 | 21.56052 | 36133 ft | 419 kts | 346° |
| 2026-05-04 20:13 | 48.01708 | 21.53662 | 36132 ft | 419 kts | 346° |
| 2026-05-04 20:14 | 48.07347 | 21.51249 | 36130 ft | 419 kts | 346° |
| 2026-05-04 20:14 | 48.12919 | 21.48861 | 36129 ft | 419 kts | 346° |
| 2026-05-04 20:15 | 48.18523 | 21.46453 | 36130 ft | 419 kts | 346° |
| 2026-05-04 20:15 | 48.24132 | 21.44038 | 36145 ft | 419 kts | 346° |
| 2026-05-04 20:16 | 48.29748 | 21.41614 | 36125 ft | 420 kts | 346° |
| 2026-05-04 20:16 | 48.35349 | 21.39191 | 36125 ft | 420 kts | 346° |
| 2026-05-04 20:17 | 48.40969 | 21.36754 | 36119 ft | 420 kts | 346° |
| 2026-05-04 20:17 | 48.46528 | 21.34336 | 36109 ft | 404 kts | 346° |
| 2026-05-04 20:17 | 48.49179 | 21.33179 | 36111 ft | 390 kts | 346° |
| 2026-05-04 20:18 | 48.51738 | 21.32061 | 36109 ft | 376 kts | 346° |
| 2026-05-04 20:18 | 48.54214 | 21.30981 | 36109 ft | 364 kts | 346° |
| 2026-05-04 20:18 | 48.56603 | 21.29938 | 36104 ft | 351 kts | 346° |
| 2026-05-04 20:19 | 48.61261 | 21.27906 | 36085 ft | 353 kts | 346° |
| 2026-05-04 20:19 | 48.63606 | 21.26881 | 35766 ft | 353 kts | 346° |
| 2026-05-04 20:19 | 48.65967 | 21.25846 | 35293 ft | 354 kts | 346° |
| 2026-05-04 20:19 | 48.68364 | 21.24796 | 34410 ft | 367 kts | 346° |
| 2026-05-04 20:20 | 48.70914 | 21.23779 | 32957 ft | 390 kts | 348° |
| 2026-05-04 20:20 | 48.73606 | 21.22821 | 31982 ft | 402 kts | 348° |
| 2026-05-04 20:20 | 48.76327 | 21.21875 | 31469 ft | 400 kts | 348° |
| 2026-05-04 20:20 | 48.79015 | 21.20931 | 31125 ft | 394 kts | 348° |
| 2026-05-04 20:21 | 48.81669 | 21.19988 | 30728 ft | 390 kts | 348° |
| 2026-05-04 20:21 | 48.84298 | 21.19044 | 30263 ft | 388 kts | 348° |
| 2026-05-04 20:21 | 48.89485 | 21.17165 | 29209 ft | 383 kts | 348° |
| 2026-05-04 20:22 | 48.92052 | 21.16233 | 28713 ft | 380 kts | 348° |
| 2026-05-04 20:22 | 48.94607 | 21.15304 | 28247 ft | 377 kts | 348° |
| 2026-05-04 20:22 | 48.97148 | 21.14379 | 27756 ft | 374 kts | 348° |
| 2026-05-04 20:22 | 48.99673 | 21.13459 | 27262 ft | 372 kts | 348° |
| 2026-05-04 20:23 | 49.02182 | 21.12545 | 26760 ft | 370 kts | 348° |
| 2026-05-04 20:23 | 49.04681 | 21.11633 | 26299 ft | 368 kts | 348° |
| 2026-05-04 20:23 | 49.07158 | 21.10729 | 25852 ft | 365 kts | 348° |
| 2026-05-04 20:23 | 49.09617 | 21.09817 | 25411 ft | 363 kts | 346° |
| 2026-05-04 20:24 | 49.11980 | 21.08470 | 24957 ft | 363 kts | 335° |
| 2026-05-04 20:24 | 49.14156 | 21.06521 | 24516 ft | 362 kts | 326° |
| 2026-05-04 20:24 | 49.16188 | 21.04258 | 24095 ft | 361 kts | 325° |
| 2026-05-04 20:24 | 49.18190 | 21.01973 | 23680 ft | 358 kts | 324° |
| 2026-05-04 20:25 | 49.20179 | 20.99694 | 23205 ft | 356 kts | 324° |
| 2026-05-04 20:25 | 49.22159 | 20.97433 | 22740 ft | 354 kts | 324° |
| 2026-05-04 20:25 | 49.24128 | 20.95191 | 22261 ft | 352 kts | 325° |
| 2026-05-04 20:25 | 49.26090 | 20.92965 | 21814 ft | 350 kts | 325° |
| 2026-05-04 20:26 | 49.28040 | 20.90755 | 21371 ft | 348 kts | 325° |
| 2026-05-04 20:26 | 49.29981 | 20.88556 | 20942 ft | 346 kts | 325° |
| 2026-05-04 20:26 | 49.31900 | 20.86383 | 20600 ft | 339 kts | 325° |
| 2026-05-04 20:26 | 49.33775 | 20.84255 | 19959 ft | 335 kts | 324° |
| 2026-05-04 20:27 | 49.35667 | 20.82109 | 19290 ft | 341 kts | 324° |
| 2026-05-04 20:27 | 49.37564 | 20.79954 | 18952 ft | 337 kts | 325° |
| 2026-05-04 20:27 | 49.39433 | 20.77827 | 18635 ft | 332 kts | 325° |
| 2026-05-04 20:27 | 49.41287 | 20.75719 | 18194 ft | 332 kts | 324° |
| 2026-05-04 20:28 | 49.43141 | 20.73607 | 17681 ft | 332 kts | 324° |
| 2026-05-04 20:28 | 49.44993 | 20.71496 | 17219 ft | 331 kts | 325° |
| 2026-05-04 20:28 | 49.46835 | 20.69393 | 16828 ft | 329 kts | 324° |
| 2026-05-04 20:28 | 49.48670 | 20.67297 | 16370 ft | 329 kts | 324° |
| 2026-05-04 20:29 | 49.50502 | 20.65202 | 15950 ft | 328 kts | 324° |
| 2026-05-04 20:29 | 49.52329 | 20.63111 | 15555 ft | 326 kts | 324° |
| 2026-05-04 20:29 | 49.54148 | 20.61028 | 15139 ft | 325 kts | 325° |
| 2026-05-04 20:29 | 49.55963 | 20.58948 | 14731 ft | 324 kts | 323° |
| 2026-05-04 20:30 | 49.57772 | 20.56893 | 14364 ft | 323 kts | 326° |
| 2026-05-04 20:30 | 49.59674 | 20.55065 | 13952 ft | 322 kts | 330° |
| 2026-05-04 20:30 | 49.61626 | 20.53372 | 13494 ft | 322 kts | 332° |
| 2026-05-04 20:30 | 49.63594 | 20.51704 | 13068 ft | 321 kts | 332° |
| 2026-05-04 20:31 | 49.65515 | 20.50074 | 12694 ft | 319 kts | 331° |
| 2026-05-04 20:31 | 49.67457 | 20.48412 | 12272 ft | 319 kts | 331° |
| 2026-05-04 20:31 | 49.68760 | 20.47289 | 12026 ft | 318 kts | 331° |
| 2026-05-04 20:31 | 49.70668 | 20.45636 | 11850 ft | 308 kts | 331° |
| 2026-05-04 20:32 | 49.72485 | 20.44053 | 11558 ft | 297 kts | 331° |
| 2026-05-04 20:32 | 49.74280 | 20.42486 | 11219 ft | 296 kts | 331° |
| 2026-05-04 20:32 | 49.76063 | 20.40926 | 10955 ft | 293 kts | 330° |
| 2026-05-04 20:32 | 49.77828 | 20.39378 | 10685 ft | 291 kts | 330° |
| 2026-05-04 20:33 | 49.79592 | 20.37830 | 10348 ft | 291 kts | 330° |
| 2026-05-04 20:33 | 49.81355 | 20.36280 | 10002 ft | 292 kts | 330° |
| 2026-05-04 20:33 | 49.83119 | 20.34728 | 9689 ft | 291 kts | 330° |
| 2026-05-04 20:33 | 49.84866 | 20.33190 | 9432 ft | 287 kts | 329° |
| 2026-05-04 20:34 | 49.86593 | 20.31669 | 9147 ft | 285 kts | 329° |
| 2026-05-04 20:34 | 49.88312 | 20.30151 | 8843 ft | 284 kts | 329° |
| 2026-05-04 20:34 | 49.90024 | 20.28639 | 8553 ft | 282 kts | 329° |
| 2026-05-04 20:34 | 49.91719 | 20.27140 | 8267 ft | 280 kts | 329° |
| 2026-05-04 20:35 | 49.93391 | 20.25660 | 7962 ft | 279 kts | 329° |
| 2026-05-04 20:35 | 49.95092 | 20.24154 | 7673 ft | 278 kts | 329° |
| 2026-05-04 20:35 | 49.96742 | 20.22692 | 7399 ft | 276 kts | 329° |
| 2026-05-04 20:35 | 49.98401 | 20.21221 | 7120 ft | 274 kts | 329° |
| 2026-05-04 20:36 | 50.00042 | 20.19764 | 6843 ft | 273 kts | 329° |
| 2026-05-04 20:36 | 50.01707 | 20.18285 | 6621 ft | 270 kts | 329° |
| 2026-05-04 20:36 | 50.03312 | 20.16997 | 6488 ft | 262 kts | 342° |
| 2026-05-04 20:36 | 50.05085 | 20.16788 | 6388 ft | 254 kts | 9° |
| 2026-05-04 20:37 | 50.06719 | 20.17671 | 6276 ft | 246 kts | 27° |
| 2026-05-04 20:37 | 50.08193 | 20.18914 | 6199 ft | 237 kts | 36° |
| 2026-05-04 20:37 | 50.09352 | 20.20669 | 6060 ft | 230 kts | 49° |
| 2026-05-04 20:37 | 50.10398 | 20.22558 | 5833 ft | 230 kts | 50° |
| 2026-05-04 20:38 | 50.11428 | 20.24462 | 5590 ft | 230 kts | 50° |
| 2026-05-04 20:38 | 50.12449 | 20.26369 | 5350 ft | 229 kts | 50° |
| 2026-05-04 20:38 | 50.13453 | 20.28263 | 5237 ft | 225 kts | 50° |
| 2026-05-04 20:38 | 50.14440 | 20.30135 | 5242 ft | 223 kts | 50° |
| 2026-05-04 20:39 | 50.15427 | 20.32012 | 5176 ft | 228 kts | 50° |
| 2026-05-04 20:39 | 50.16455 | 20.33973 | 4924 ft | 235 kts | 50° |
| 2026-05-04 20:39 | 50.17455 | 20.35981 | 4668 ft | 235 kts | 59° |
| 2026-05-04 20:39 | 50.17893 | 20.38415 | 4400 ft | 236 kts | 92° |
| 2026-05-04 20:40 | 50.17433 | 20.40823 | 4162 ft | 232 kts | 126° |
| 2026-05-04 20:40 | 50.16242 | 20.42392 | 4080 ft | 225 kts | 160° |
| 2026-05-04 20:40 | 50.14723 | 20.42663 | 4064 ft | 220 kts | 194° |
| 2026-05-04 20:40 | 50.13409 | 20.41589 | 4056 ft | 213 kts | 228° |
| 2026-05-04 20:41 | 50.12745 | 20.39582 | 4060 ft | 211 kts | 260° |
| 2026-05-04 20:41 | 50.12586 | 20.37327 | 4056 ft | 206 kts | 265° |
| 2026-05-04 20:41 | 50.12487 | 20.35158 | 4038 ft | 195 kts | 266° |
| 2026-05-04 20:41 | 50.12397 | 20.33105 | 4042 ft | 186 kts | 266° |
| 2026-05-04 20:42 | 50.12314 | 20.31106 | 4047 ft | 184 kts | 266° |
| 2026-05-04 20:42 | 50.12231 | 20.29100 | 4066 ft | 193 kts | 266° |
| 2026-05-04 20:42 | 50.12140 | 20.26860 | 4084 ft | 214 kts | 266° |
| 2026-05-04 20:42 | 50.12045 | 20.24523 | 4069 ft | 217 kts | 266° |
| 2026-05-04 20:43 | 50.11948 | 20.22166 | 4071 ft | 219 kts | 266° |
| 2026-05-04 20:43 | 50.11850 | 20.19792 | 4068 ft | 220 kts | 266° |
| 2026-05-04 20:43 | 50.11752 | 20.17407 | 4062 ft | 221 kts | 266° |
| 2026-05-04 20:43 | 50.11654 | 20.15026 | 4062 ft | 220 kts | 266° |
| 2026-05-04 20:44 | 50.11558 | 20.12666 | 4056 ft | 216 kts | 266° |
| 2026-05-04 20:44 | 50.11463 | 20.10376 | 4054 ft | 214 kts | 266° |
| 2026-05-04 20:44 | 50.11366 | 20.08056 | 4025 ft | 217 kts | 266° |
| 2026-05-04 20:44 | 50.11267 | 20.05693 | 3809 ft | 219 kts | 265° |
| 2026-05-04 20:45 | 50.11172 | 20.03349 | 3666 ft | 213 kts | 262° |
| 2026-05-04 20:45 | 50.10942 | 20.01104 | 3445 ft | 208 kts | 256° |
| 2026-05-04 20:45 | 50.10641 | 19.98937 | 3193 ft | 201 kts | 256° |
| 2026-05-04 20:45 | 50.10346 | 19.96869 | 2943 ft | 191 kts | 256° |
| 2026-05-04 20:46 | 50.10070 | 19.94915 | 2716 ft | 181 kts | 256° |
| 2026-05-04 20:46 | 50.09810 | 19.93058 | 2462 ft | 171 kts | 256° |
| 2026-05-04 20:46 | 50.09566 | 19.91322 | 2256 ft | 160 kts | 256° |
| 2026-05-04 20:46 | 50.09328 | 19.89631 | 2041 ft | 162 kts | 257° |
| 2026-05-04 20:47 | 50.09086 | 19.87898 | 1856 ft | 161 kts | 257° |
| 2026-05-04 20:47 | 50.08854 | 19.86239 | 1609 ft | 152 kts | 256° |
| 2026-05-04 20:47 | 50.08633 | 19.84661 | 1403 ft | 147 kts | 256° |
| 2026-05-04 20:47 | 50.08418 | 19.83111 | 1218 ft | 146 kts | 256° |
| 2026-05-04 20:48 | 50.08200 | 19.81547 | 1063 ft | 150 kts | 256° |
| 2026-05-04 20:48 | 50.07981 | 19.79960 | 848 ft | 152 kts | 257° |
| 2026-05-04 20:48 | 50.07768 | 19.78446 | 800 ft | 125 kts | 257° |
| 2026-05-04 20:48 | 50.07628 | 19.77450 | 798 ft | 63 kts | 257° |
| 2026-05-04 20:49 | 50.07581 | 19.77106 | 801 ft | 9 kts | 258° |
| 2026-05-04 20:49 | 50.07552 | 19.76921 | 801 ft | 18 kts | 249° |
| 2026-05-04 20:49 | 50.07482 | 19.76841 | 800 ft | 13 kts | 168° |
| 2026-05-04 20:49 | 50.07389 | 19.76870 | 798 ft | 14 kts | 171° |
| 2026-05-04 20:50 | 50.07310 | 19.76925 | 798 ft | 13 kts | 118° |
| 2026-05-04 20:50 | 50.07321 | 19.77060 | 798 ft | 13 kts | 77° |
| 2026-05-04 20:50 | 50.07340 | 19.77193 | 798 ft | 12 kts | 77° |
| 2026-05-04 20:50 | 50.07358 | 19.77324 | 798 ft | 12 kts | 77° |
| 2026-05-04 20:51 | 50.07379 | 19.77470 | 798 ft | 16 kts | 77° |
| 2026-05-04 20:51 | 50.07402 | 19.77635 | 798 ft | 15 kts | 77° |
| 2026-05-04 20:51 | 50.07425 | 19.77795 | 798 ft | 15 kts | 77° |
| 2026-05-04 20:51 | 50.07446 | 19.77949 | 798 ft | 14 kts | 79° |
| 2026-05-04 20:52 | 50.07470 | 19.78123 | 798 ft | 21 kts | 76° |
| 2026-05-04 20:52 | 50.07500 | 19.78337 | 798 ft | 20 kts | 78° |
| 2026-05-04 20:52 | 50.07529 | 19.78547 | 798 ft | 19 kts | 78° |
| 2026-05-04 20:52 | 50.07556 | 19.78749 | 798 ft | 19 kts | 80° |
| 2026-05-04 20:53 | 50.07568 | 19.78949 | 798 ft | 18 kts | 77° |
| 2026-05-04 20:53 | 50.07610 | 19.79131 | 798 ft | 18 kts | 77° |
| 2026-05-04 20:53 | 50.07636 | 19.79314 | 798 ft | 17 kts | 79° |
| 2026-05-04 20:53 | 50.07660 | 19.79488 | 798 ft | 16 kts | 77° |
| 2026-05-04 20:54 | 50.07683 | 19.79654 | 798 ft | 15 kts | 77° |
| 2026-05-04 20:54 | 50.07704 | 19.79807 | 798 ft | 12 kts | 80° |
| 2026-05-04 20:54 | 50.07660 | 19.79883 | 798 ft | 10 kts | 167° |
| 2026-05-04 20:54 | 50.07591 | 19.79908 | 798 ft | 10 kts | 168° |
| 2026-05-04 20:55 | 50.07523 | 19.79930 | 798 ft | 10 kts | 168° |
| 2026-05-04 20:55 | 50.07457 | 19.79952 | 798 ft | 10 kts | 168° |
| 2026-05-04 20:55 | 50.07401 | 19.80018 | 798 ft | 11 kts | 96° |
| 2026-05-04 20:55 | 50.07415 | 19.80138 | 798 ft | 11 kts | 78° |
| 2026-05-04 20:56 | 50.07416 | 19.80163 | 798 ft | 4 kts | 96° |
| 2026-05-04 20:56 | 50.07384 | 19.80192 | 798 ft | 7 kts | 168° |
| 2026-05-04 20:56 | 50.07352 | 19.80202 | 798 ft | 2 kts | 169° |
| 2026-05-04 20:56 | 50.07343 | 19.80205 | 798 ft | 2 kts | 169° |
| 2026-05-04 20:57 | 50.07342 | 19.80205 | 798 ft | 0 kts | 169° |